<?xml version="1.0" encoding="UTF-8" standalone="no" ?>
<gpx xmlns="http://www.topografix.com/GPX/1/1" xmlns:xsi="http://www.w3.org/2001/XMLSchema-instance" xsi:schemaLocation="http://www.topografix.com/GPX/1/1 http://www.topografix.com/GPX/1/1/gpx.xsd" version="1.1" creator="VisuGPX - https://www.visugpx.com">
  <metadata>
    <name>10-12-19FantaineVaucluseValescure</name>
    <desc><![CDATA[
]]></desc>
  </metadata>
  <trk>
    <name><![CDATA[10-12-19FontaineVaucluseValescure]]></name>
    <trkseg>
      <trkpt lat="43.91984" lon="5.1189">
        <ele>75.6</ele>
        <time>2019-12-08T11:58:8.000Z</time>
      </trkpt>
      <trkpt lat="43.91985" lon="5.11891">
        <ele>75.1</ele>
        <time>2019-12-08T11:58:9.000Z</time>
      </trkpt>
      <trkpt lat="43.91989" lon="5.11895">
        <ele>75.6</ele>
        <time>2019-12-08T11:58:14.000Z</time>
      </trkpt>
      <trkpt lat="43.9199" lon="5.11896">
        <ele>76.1</ele>
        <time>2019-12-08T11:58:16.000Z</time>
      </trkpt>
      <trkpt lat="43.91992" lon="5.11899">
        <ele>75.6</ele>
        <time>2019-12-08T11:58:18.000Z</time>
      </trkpt>
      <trkpt lat="43.92002" lon="5.11915">
        <ele>76.1</ele>
        <time>2019-12-08T11:58:33.000Z</time>
      </trkpt>
      <trkpt lat="43.92008" lon="5.11934">
        <ele>76.1</ele>
        <time>2019-12-08T11:58:49.000Z</time>
      </trkpt>
      <trkpt lat="43.92012" lon="5.11947">
        <ele>76.1</ele>
        <time>2019-12-08T11:59:2.000Z</time>
      </trkpt>
      <trkpt lat="43.92014" lon="5.11956">
        <ele>76.1</ele>
        <time>2019-12-08T11:59:10.000Z</time>
      </trkpt>
      <trkpt lat="43.9202" lon="5.11973">
        <ele>76.6</ele>
        <time>2019-12-08T11:59:23.000Z</time>
      </trkpt>
      <trkpt lat="43.92028" lon="5.11993">
        <ele>76.1</ele>
        <time>2019-12-08T11:59:38.000Z</time>
      </trkpt>
      <trkpt lat="43.92031" lon="5.12011">
        <ele>76.1</ele>
        <time>2019-12-08T11:59:51.000Z</time>
      </trkpt>
      <trkpt lat="43.92034" lon="5.12027">
        <ele>75.6</ele>
        <time>2019-12-08T12:00:4.000Z</time>
      </trkpt>
      <trkpt lat="43.92039" lon="5.12042">
        <ele>76.1</ele>
        <time>2019-12-08T12:00:15.000Z</time>
      </trkpt>
      <trkpt lat="43.92044" lon="5.12059">
        <ele>76.1</ele>
        <time>2019-12-08T12:00:29.000Z</time>
      </trkpt>
      <trkpt lat="43.9205" lon="5.1207">
        <ele>76.1</ele>
        <time>2019-12-08T12:00:40.000Z</time>
      </trkpt>
      <trkpt lat="43.92058" lon="5.12081">
        <ele>76.6</ele>
        <time>2019-12-08T12:00:54.000Z</time>
      </trkpt>
      <trkpt lat="43.92062" lon="5.12083">
        <ele>76.6</ele>
        <time>2019-12-08T12:01:6.000Z</time>
      </trkpt>
      <trkpt lat="43.92073" lon="5.12099">
        <ele>76.6</ele>
        <time>2019-12-08T12:01:20.000Z</time>
      </trkpt>
      <trkpt lat="43.92087" lon="5.12123">
        <ele>76.6</ele>
        <time>2019-12-08T12:01:37.000Z</time>
      </trkpt>
      <trkpt lat="43.92088" lon="5.12125">
        <ele>76.1</ele>
        <time>2019-12-08T12:01:38.000Z</time>
      </trkpt>
      <trkpt lat="43.92091" lon="5.12133">
        <ele>76.6</ele>
        <time>2019-12-08T12:01:43.000Z</time>
      </trkpt>
      <trkpt lat="43.92099" lon="5.12162">
        <ele>76.6</ele>
        <time>2019-12-08T12:01:59.000Z</time>
      </trkpt>
      <trkpt lat="43.92101" lon="5.12167">
        <ele>76.6</ele>
        <time>2019-12-08T12:02:4.000Z</time>
      </trkpt>
      <trkpt lat="43.92103" lon="5.12172">
        <ele>76.6</ele>
        <time>2019-12-08T12:02:8.000Z</time>
      </trkpt>
      <trkpt lat="43.92113" lon="5.12194">
        <ele>77</ele>
        <time>2019-12-08T12:02:23.000Z</time>
      </trkpt>
      <trkpt lat="43.92117" lon="5.12196">
        <ele>77</ele>
        <time>2019-12-08T12:02:27.000Z</time>
      </trkpt>
      <trkpt lat="43.92121" lon="5.12203">
        <ele>77.5</ele>
        <time>2019-12-08T12:02:32.000Z</time>
      </trkpt>
      <trkpt lat="43.92128" lon="5.12225">
        <ele>77</ele>
        <time>2019-12-08T12:02:45.000Z</time>
      </trkpt>
      <trkpt lat="43.92134" lon="5.12235">
        <ele>77.5</ele>
        <time>2019-12-08T12:02:52.000Z</time>
      </trkpt>
      <trkpt lat="43.92138" lon="5.12269">
        <ele>78</ele>
        <time>2019-12-08T12:03:8.000Z</time>
      </trkpt>
      <trkpt lat="43.92145" lon="5.12287">
        <ele>78</ele>
        <time>2019-12-08T12:03:21.000Z</time>
      </trkpt>
      <trkpt lat="43.92152" lon="5.12305">
        <ele>79</ele>
        <time>2019-12-08T12:03:37.000Z</time>
      </trkpt>
      <trkpt lat="43.92158" lon="5.12322">
        <ele>79.4</ele>
        <time>2019-12-08T12:03:51.000Z</time>
      </trkpt>
      <trkpt lat="43.92166" lon="5.12342">
        <ele>80.4</ele>
        <time>2019-12-08T12:04:3.000Z</time>
      </trkpt>
      <trkpt lat="43.92177" lon="5.12369">
        <ele>81.8</ele>
        <time>2019-12-08T12:04:18.000Z</time>
      </trkpt>
      <trkpt lat="43.92185" lon="5.1239">
        <ele>82.8</ele>
        <time>2019-12-08T12:04:35.000Z</time>
      </trkpt>
      <trkpt lat="43.92187" lon="5.12422">
        <ele>83.8</ele>
        <time>2019-12-08T12:04:55.000Z</time>
      </trkpt>
      <trkpt lat="43.92184" lon="5.12444">
        <ele>84.7</ele>
        <time>2019-12-08T12:05:9.000Z</time>
      </trkpt>
      <trkpt lat="43.92183" lon="5.12448">
        <ele>84.7</ele>
        <time>2019-12-08T12:05:11.000Z</time>
      </trkpt>
      <trkpt lat="43.92189" lon="5.12458">
        <ele>84.7</ele>
        <time>2019-12-08T12:05:21.000Z</time>
      </trkpt>
      <trkpt lat="43.92186" lon="5.12485">
        <ele>85.7</ele>
        <time>2019-12-08T12:05:37.000Z</time>
      </trkpt>
      <trkpt lat="43.92181" lon="5.12506">
        <ele>86.7</ele>
        <time>2019-12-08T12:05:50.000Z</time>
      </trkpt>
      <trkpt lat="43.9218" lon="5.12529">
        <ele>86.2</ele>
        <time>2019-12-08T12:06:2.000Z</time>
      </trkpt>
      <trkpt lat="43.92182" lon="5.12551">
        <ele>86.7</ele>
        <time>2019-12-08T12:06:14.000Z</time>
      </trkpt>
      <trkpt lat="43.92183" lon="5.12561">
        <ele>86.7</ele>
        <time>2019-12-08T12:06:21.000Z</time>
      </trkpt>
      <trkpt lat="43.92182" lon="5.12571">
        <ele>87.1</ele>
        <time>2019-12-08T12:06:29.000Z</time>
      </trkpt>
      <trkpt lat="43.92177" lon="5.12587">
        <ele>87.6</ele>
        <time>2019-12-08T12:06:40.000Z</time>
      </trkpt>
      <trkpt lat="43.92175" lon="5.12599">
        <ele>87.1</ele>
        <time>2019-12-08T12:06:45.000Z</time>
      </trkpt>
      <trkpt lat="43.92171" lon="5.12607">
        <ele>87.1</ele>
        <time>2019-12-08T12:06:48.000Z</time>
      </trkpt>
      <trkpt lat="43.92176" lon="5.12622">
        <ele>86.7</ele>
        <time>2019-12-08T12:06:55.000Z</time>
      </trkpt>
      <trkpt lat="43.92181" lon="5.12628">
        <ele>87.1</ele>
        <time>2019-12-08T12:07:0.000Z</time>
      </trkpt>
      <trkpt lat="43.92184" lon="5.12631">
        <ele>87.6</ele>
        <time>2019-12-08T12:07:5.000Z</time>
      </trkpt>
      <trkpt lat="43.92198" lon="5.12635">
        <ele>88.1</ele>
        <time>2019-12-08T12:07:17.000Z</time>
      </trkpt>
      <trkpt lat="43.92212" lon="5.12639">
        <ele>88.6</ele>
        <time>2019-12-08T12:07:29.000Z</time>
      </trkpt>
      <trkpt lat="43.92228" lon="5.12629">
        <ele>89.1</ele>
        <time>2019-12-08T12:07:45.000Z</time>
      </trkpt>
      <trkpt lat="43.92241" lon="5.12622">
        <ele>89.1</ele>
        <time>2019-12-08T12:07:58.000Z</time>
      </trkpt>
      <trkpt lat="43.92244" lon="5.12621">
        <ele>89.1</ele>
        <time>2019-12-08T12:08:1.000Z</time>
      </trkpt>
      <trkpt lat="43.92247" lon="5.12619">
        <ele>89.1</ele>
        <time>2019-12-08T12:08:5.000Z</time>
      </trkpt>
      <trkpt lat="43.92255" lon="5.12615">
        <ele>89.1</ele>
        <time>2019-12-08T12:08:21.000Z</time>
      </trkpt>
      <trkpt lat="43.92265" lon="5.12615">
        <ele>89.5</ele>
        <time>2019-12-08T12:08:37.000Z</time>
      </trkpt>
      <trkpt lat="43.92267" lon="5.12625">
        <ele>88.6</ele>
        <time>2019-12-08T12:08:48.000Z</time>
      </trkpt>
      <trkpt lat="43.92255" lon="5.12635">
        <ele>87.6</ele>
        <time>2019-12-08T12:09:2.000Z</time>
      </trkpt>
      <trkpt lat="43.92254" lon="5.12636">
        <ele>87.1</ele>
        <time>2019-12-08T12:09:5.000Z</time>
      </trkpt>
      <trkpt lat="43.9224" lon="5.12651">
        <ele>87.1</ele>
        <time>2019-12-08T12:09:17.000Z</time>
      </trkpt>
      <trkpt lat="43.92241" lon="5.12655">
        <ele>87.1</ele>
        <time>2019-12-08T12:09:20.000Z</time>
      </trkpt>
      <trkpt lat="43.9224" lon="5.12659">
        <ele>87.1</ele>
        <time>2019-12-08T12:09:23.000Z</time>
      </trkpt>
      <trkpt lat="43.92241" lon="5.12666">
        <ele>87.6</ele>
        <time>2019-12-08T12:09:30.000Z</time>
      </trkpt>
      <trkpt lat="43.9225" lon="5.12674">
        <ele>89.1</ele>
        <time>2019-12-08T12:09:42.000Z</time>
      </trkpt>
      <trkpt lat="43.92251" lon="5.12675">
        <ele>89.1</ele>
        <time>2019-12-08T12:09:45.000Z</time>
      </trkpt>
      <trkpt lat="43.92255" lon="5.12681">
        <ele>89.5</ele>
        <time>2019-12-08T12:09:50.000Z</time>
      </trkpt>
      <trkpt lat="43.9226" lon="5.12685">
        <ele>91</ele>
        <time>2019-12-08T12:09:55.000Z</time>
      </trkpt>
      <trkpt lat="43.92263" lon="5.12689">
        <ele>91.5</ele>
        <time>2019-12-08T12:10:6.000Z</time>
      </trkpt>
      <trkpt lat="43.9227" lon="5.12691">
        <ele>92.4</ele>
        <time>2019-12-08T12:10:27.000Z</time>
      </trkpt>
      <trkpt lat="43.9228" lon="5.12697">
        <ele>94.3</ele>
        <time>2019-12-08T12:10:38.000Z</time>
      </trkpt>
      <trkpt lat="43.92287" lon="5.12685">
        <ele>97.2</ele>
        <time>2019-12-08T12:10:54.000Z</time>
      </trkpt>
      <trkpt lat="43.92296" lon="5.12672">
        <ele>99.6</ele>
        <time>2019-12-08T12:11:8.000Z</time>
      </trkpt>
      <trkpt lat="43.92305" lon="5.12657">
        <ele>100.6</ele>
        <time>2019-12-08T12:11:21.000Z</time>
      </trkpt>
      <trkpt lat="43.92317" lon="5.12638">
        <ele>101.1</ele>
        <time>2019-12-08T12:11:38.000Z</time>
      </trkpt>
      <trkpt lat="43.92333" lon="5.12622">
        <ele>101.6</ele>
        <time>2019-12-08T12:11:55.000Z</time>
      </trkpt>
      <trkpt lat="43.92345" lon="5.12616">
        <ele>103</ele>
        <time>2019-12-08T12:12:10.000Z</time>
      </trkpt>
      <trkpt lat="43.92357" lon="5.12623">
        <ele>104.4</ele>
        <time>2019-12-08T12:12:27.000Z</time>
      </trkpt>
      <trkpt lat="43.92369" lon="5.12631">
        <ele>106.4</ele>
        <time>2019-12-08T12:12:43.000Z</time>
      </trkpt>
      <trkpt lat="43.9239" lon="5.12641">
        <ele>108.3</ele>
        <time>2019-12-08T12:13:3.000Z</time>
      </trkpt>
      <trkpt lat="43.92406" lon="5.12645">
        <ele>110.2</ele>
        <time>2019-12-08T12:13:21.000Z</time>
      </trkpt>
      <trkpt lat="43.92414" lon="5.12648">
        <ele>111.7</ele>
        <time>2019-12-08T12:13:31.000Z</time>
      </trkpt>
      <trkpt lat="43.92434" lon="5.12652">
        <ele>115</ele>
        <time>2019-12-08T12:13:50.000Z</time>
      </trkpt>
      <trkpt lat="43.92448" lon="5.12659">
        <ele>118.4</ele>
        <time>2019-12-08T12:14:8.000Z</time>
      </trkpt>
      <trkpt lat="43.92443" lon="5.12671">
        <ele>120.3</ele>
        <time>2019-12-08T12:14:25.000Z</time>
      </trkpt>
      <trkpt lat="43.92431" lon="5.12678">
        <ele>122.2</ele>
        <time>2019-12-08T12:14:43.000Z</time>
      </trkpt>
      <trkpt lat="43.92426" lon="5.12682">
        <ele>123.7</ele>
        <time>2019-12-08T12:14:50.000Z</time>
      </trkpt>
      <trkpt lat="43.92412" lon="5.12699">
        <ele>125.6</ele>
        <time>2019-12-08T12:15:8.000Z</time>
      </trkpt>
      <trkpt lat="43.92412" lon="5.12726">
        <ele>128.9</ele>
        <time>2019-12-08T12:15:27.000Z</time>
      </trkpt>
      <trkpt lat="43.9242" lon="5.12745">
        <ele>130.4</ele>
        <time>2019-12-08T12:15:42.000Z</time>
      </trkpt>
      <trkpt lat="43.92429" lon="5.12753">
        <ele>130.9</ele>
        <time>2019-12-08T12:15:54.000Z</time>
      </trkpt>
      <trkpt lat="43.92441" lon="5.12763">
        <ele>132.8</ele>
        <time>2019-12-08T12:16:10.000Z</time>
      </trkpt>
      <trkpt lat="43.92452" lon="5.12775">
        <ele>134.2</ele>
        <time>2019-12-08T12:16:26.000Z</time>
      </trkpt>
      <trkpt lat="43.92466" lon="5.12787">
        <ele>136.6</ele>
        <time>2019-12-08T12:16:46.000Z</time>
      </trkpt>
      <trkpt lat="43.92481" lon="5.12799">
        <ele>139.5</ele>
        <time>2019-12-08T12:17:7.000Z</time>
      </trkpt>
      <trkpt lat="43.92496" lon="5.12805">
        <ele>142.4</ele>
        <time>2019-12-08T12:17:24.000Z</time>
      </trkpt>
      <trkpt lat="43.92511" lon="5.12808">
        <ele>144.8</ele>
        <time>2019-12-08T12:17:41.000Z</time>
      </trkpt>
      <trkpt lat="43.92526" lon="5.1281">
        <ele>148.2</ele>
        <time>2019-12-08T12:18:1.000Z</time>
      </trkpt>
      <trkpt lat="43.92543" lon="5.12806">
        <ele>149.6</ele>
        <time>2019-12-08T12:18:19.000Z</time>
      </trkpt>
      <trkpt lat="43.92562" lon="5.12791">
        <ele>151.5</ele>
        <time>2019-12-08T12:18:39.000Z</time>
      </trkpt>
      <trkpt lat="43.92574" lon="5.1278">
        <ele>153.5</ele>
        <time>2019-12-08T12:18:56.000Z</time>
      </trkpt>
      <trkpt lat="43.92588" lon="5.12766">
        <ele>155.9</ele>
        <time>2019-12-08T12:19:16.000Z</time>
      </trkpt>
      <trkpt lat="43.92602" lon="5.12755">
        <ele>158.3</ele>
        <time>2019-12-08T12:19:34.000Z</time>
      </trkpt>
      <trkpt lat="43.92617" lon="5.12745">
        <ele>161.6</ele>
        <time>2019-12-08T12:19:55.000Z</time>
      </trkpt>
      <trkpt lat="43.92632" lon="5.12735">
        <ele>164.5</ele>
        <time>2019-12-08T12:20:16.000Z</time>
      </trkpt>
      <trkpt lat="43.92646" lon="5.12727">
        <ele>167.4</ele>
        <time>2019-12-08T12:20:35.000Z</time>
      </trkpt>
      <trkpt lat="43.92664" lon="5.1271">
        <ele>170.3</ele>
        <time>2019-12-08T12:20:58.000Z</time>
      </trkpt>
      <trkpt lat="43.92677" lon="5.12698">
        <ele>172.2</ele>
        <time>2019-12-08T12:21:17.000Z</time>
      </trkpt>
      <trkpt lat="43.92688" lon="5.12686">
        <ele>174.1</ele>
        <time>2019-12-08T12:21:33.000Z</time>
      </trkpt>
      <trkpt lat="43.92695" lon="5.12676">
        <ele>175.1</ele>
        <time>2019-12-08T12:21:53.000Z</time>
      </trkpt>
      <trkpt lat="43.92697" lon="5.12671">
        <ele>175.6</ele>
        <time>2019-12-08T12:22:10.000Z</time>
      </trkpt>
      <trkpt lat="43.92704" lon="5.12661">
        <ele>177</ele>
        <time>2019-12-08T12:22:28.000Z</time>
      </trkpt>
      <trkpt lat="43.92715" lon="5.12653">
        <ele>178.9</ele>
        <time>2019-12-08T12:22:47.000Z</time>
      </trkpt>
      <trkpt lat="43.9273" lon="5.12644">
        <ele>181.4</ele>
        <time>2019-12-08T12:23:9.000Z</time>
      </trkpt>
      <trkpt lat="43.92741" lon="5.12634">
        <ele>184.2</ele>
        <time>2019-12-08T12:23:31.000Z</time>
      </trkpt>
      <trkpt lat="43.92755" lon="5.12624">
        <ele>186.6</ele>
        <time>2019-12-08T12:23:50.000Z</time>
      </trkpt>
      <trkpt lat="43.92768" lon="5.12612">
        <ele>189.5</ele>
        <time>2019-12-08T12:24:8.000Z</time>
      </trkpt>
      <trkpt lat="43.9278" lon="5.126">
        <ele>191.9</ele>
        <time>2019-12-08T12:24:25.000Z</time>
      </trkpt>
      <trkpt lat="43.9279" lon="5.12591">
        <ele>194.3</ele>
        <time>2019-12-08T12:24:43.000Z</time>
      </trkpt>
      <trkpt lat="43.92801" lon="5.12586">
        <ele>196.7</ele>
        <time>2019-12-08T12:25:0.000Z</time>
      </trkpt>
      <trkpt lat="43.92809" lon="5.12578">
        <ele>197.7</ele>
        <time>2019-12-08T12:25:17.000Z</time>
      </trkpt>
      <trkpt lat="43.92808" lon="5.12578">
        <ele>197.2</ele>
        <time>2019-12-08T12:25:40.000Z</time>
      </trkpt>
      <trkpt lat="43.92804" lon="5.12576">
        <ele>197.2</ele>
        <time>2019-12-08T12:26:6.000Z</time>
      </trkpt>
      <trkpt lat="43.92819" lon="5.1258">
        <ele>198.6</ele>
        <time>2019-12-08T12:26:30.000Z</time>
      </trkpt>
      <trkpt lat="43.92828" lon="5.12577">
        <ele>201.1</ele>
        <time>2019-12-08T12:26:45.000Z</time>
      </trkpt>
      <trkpt lat="43.92839" lon="5.12584">
        <ele>203.5</ele>
        <time>2019-12-08T12:27:5.000Z</time>
      </trkpt>
      <trkpt lat="43.92858" lon="5.12581">
        <ele>206.8</ele>
        <time>2019-12-08T12:27:25.000Z</time>
      </trkpt>
      <trkpt lat="43.92875" lon="5.12582">
        <ele>209.7</ele>
        <time>2019-12-08T12:27:46.000Z</time>
      </trkpt>
      <trkpt lat="43.9289" lon="5.12582">
        <ele>211.6</ele>
        <time>2019-12-08T12:28:5.000Z</time>
      </trkpt>
      <trkpt lat="43.92904" lon="5.12578">
        <ele>214.5</ele>
        <time>2019-12-08T12:28:24.000Z</time>
      </trkpt>
      <trkpt lat="43.92914" lon="5.12571">
        <ele>217.4</ele>
        <time>2019-12-08T12:28:41.000Z</time>
      </trkpt>
      <trkpt lat="43.92927" lon="5.1256">
        <ele>219.8</ele>
        <time>2019-12-08T12:28:58.000Z</time>
      </trkpt>
      <trkpt lat="43.92937" lon="5.12549">
        <ele>222.7</ele>
        <time>2019-12-08T12:29:18.000Z</time>
      </trkpt>
      <trkpt lat="43.92939" lon="5.12546">
        <ele>223.2</ele>
        <time>2019-12-08T12:29:23.000Z</time>
      </trkpt>
      <trkpt lat="43.92954" lon="5.12536">
        <ele>225.1</ele>
        <time>2019-12-08T12:29:40.000Z</time>
      </trkpt>
      <trkpt lat="43.9297" lon="5.12526">
        <ele>227.5</ele>
        <time>2019-12-08T12:30:2.000Z</time>
      </trkpt>
      <trkpt lat="43.92985" lon="5.12518">
        <ele>229.4</ele>
        <time>2019-12-08T12:30:19.000Z</time>
      </trkpt>
      <trkpt lat="43.93001" lon="5.12515">
        <ele>229.9</ele>
        <time>2019-12-08T12:30:37.000Z</time>
      </trkpt>
      <trkpt lat="43.93021" lon="5.12506">
        <ele>231.3</ele>
        <time>2019-12-08T12:30:58.000Z</time>
      </trkpt>
      <trkpt lat="43.93041" lon="5.12501">
        <ele>232.8</ele>
        <time>2019-12-08T12:31:19.000Z</time>
      </trkpt>
      <trkpt lat="43.93053" lon="5.125">
        <ele>234.2</ele>
        <time>2019-12-08T12:31:36.000Z</time>
      </trkpt>
      <trkpt lat="43.93072" lon="5.1251">
        <ele>236.1</ele>
        <time>2019-12-08T12:31:57.000Z</time>
      </trkpt>
      <trkpt lat="43.93094" lon="5.12514">
        <ele>238.1</ele>
        <time>2019-12-08T12:32:18.000Z</time>
      </trkpt>
      <trkpt lat="43.93111" lon="5.12521">
        <ele>240</ele>
        <time>2019-12-08T12:32:37.000Z</time>
      </trkpt>
      <trkpt lat="43.93131" lon="5.12526">
        <ele>241.4</ele>
        <time>2019-12-08T12:32:57.000Z</time>
      </trkpt>
      <trkpt lat="43.93146" lon="5.12527">
        <ele>242.9</ele>
        <time>2019-12-08T12:33:14.000Z</time>
      </trkpt>
      <trkpt lat="43.93166" lon="5.12534">
        <ele>243.8</ele>
        <time>2019-12-08T12:33:36.000Z</time>
      </trkpt>
      <trkpt lat="43.93176" lon="5.12548">
        <ele>245.3</ele>
        <time>2019-12-08T12:33:51.000Z</time>
      </trkpt>
      <trkpt lat="43.93185" lon="5.12561">
        <ele>246.2</ele>
        <time>2019-12-08T12:34:6.000Z</time>
      </trkpt>
      <trkpt lat="43.93196" lon="5.12583">
        <ele>248.2</ele>
        <time>2019-12-08T12:34:25.000Z</time>
      </trkpt>
      <trkpt lat="43.93202" lon="5.12601">
        <ele>249.1</ele>
        <time>2019-12-08T12:34:40.000Z</time>
      </trkpt>
      <trkpt lat="43.93214" lon="5.12616">
        <ele>251</ele>
        <time>2019-12-08T12:34:58.000Z</time>
      </trkpt>
      <trkpt lat="43.93226" lon="5.1263">
        <ele>252</ele>
        <time>2019-12-08T12:35:14.000Z</time>
      </trkpt>
      <trkpt lat="43.93237" lon="5.12645">
        <ele>253.4</ele>
        <time>2019-12-08T12:35:33.000Z</time>
      </trkpt>
      <trkpt lat="43.93242" lon="5.12652">
        <ele>255.4</ele>
        <time>2019-12-08T12:35:49.000Z</time>
      </trkpt>
      <trkpt lat="43.93238" lon="5.12661">
        <ele>258.7</ele>
        <time>2019-12-08T12:36:6.000Z</time>
      </trkpt>
      <trkpt lat="43.93245" lon="5.1267">
        <ele>260.2</ele>
        <time>2019-12-08T12:36:28.000Z</time>
      </trkpt>
      <trkpt lat="43.93249" lon="5.12666">
        <ele>260.6</ele>
        <time>2019-12-08T12:36:51.000Z</time>
      </trkpt>
      <trkpt lat="43.93248" lon="5.1266">
        <ele>260.2</ele>
        <time>2019-12-08T12:37:18.000Z</time>
      </trkpt>
      <trkpt lat="43.93241" lon="5.12653">
        <ele>257.8</ele>
        <time>2019-12-08T12:37:35.000Z</time>
      </trkpt>
      <trkpt lat="43.93242" lon="5.12653">
        <ele>257.3</ele>
        <time>2019-12-08T12:37:36.000Z</time>
      </trkpt>
      <trkpt lat="43.93244" lon="5.12651">
        <ele>256.3</ele>
        <time>2019-12-08T12:37:38.000Z</time>
      </trkpt>
      <trkpt lat="43.93247" lon="5.12647">
        <ele>254.4</ele>
        <time>2019-12-08T12:37:41.000Z</time>
      </trkpt>
      <trkpt lat="43.93259" lon="5.12658">
        <ele>255.9</ele>
        <time>2019-12-08T12:37:53.000Z</time>
      </trkpt>
      <trkpt lat="43.93262" lon="5.1266">
        <ele>256.8</ele>
        <time>2019-12-08T12:37:56.000Z</time>
      </trkpt>
      <trkpt lat="43.93279" lon="5.12672">
        <ele>258.7</ele>
        <time>2019-12-08T12:38:13.000Z</time>
      </trkpt>
      <trkpt lat="43.93295" lon="5.12683">
        <ele>260.6</ele>
        <time>2019-12-08T12:38:30.000Z</time>
      </trkpt>
      <trkpt lat="43.9331" lon="5.12692">
        <ele>261.6</ele>
        <time>2019-12-08T12:38:48.000Z</time>
      </trkpt>
      <trkpt lat="43.93312" lon="5.12687">
        <ele>261.6</ele>
        <time>2019-12-08T12:39:7.000Z</time>
      </trkpt>
      <trkpt lat="43.93319" lon="5.12691">
        <ele>262.1</ele>
        <time>2019-12-08T12:39:25.000Z</time>
      </trkpt>
      <trkpt lat="43.93334" lon="5.12696">
        <ele>263.5</ele>
        <time>2019-12-08T12:39:44.000Z</time>
      </trkpt>
      <trkpt lat="43.93349" lon="5.12697">
        <ele>265.5</ele>
        <time>2019-12-08T12:40:2.000Z</time>
      </trkpt>
      <trkpt lat="43.93363" lon="5.12692">
        <ele>266.9</ele>
        <time>2019-12-08T12:40:18.000Z</time>
      </trkpt>
      <trkpt lat="43.93365" lon="5.12692">
        <ele>266.9</ele>
        <time>2019-12-08T12:40:20.000Z</time>
      </trkpt>
      <trkpt lat="43.93381" lon="5.12682">
        <ele>268.4</ele>
        <time>2019-12-08T12:40:39.000Z</time>
      </trkpt>
      <trkpt lat="43.93396" lon="5.12676">
        <ele>269.3</ele>
        <time>2019-12-08T12:40:55.000Z</time>
      </trkpt>
      <trkpt lat="43.93409" lon="5.12681">
        <ele>270.8</ele>
        <time>2019-12-08T12:41:12.000Z</time>
      </trkpt>
      <trkpt lat="43.93414" lon="5.12685">
        <ele>270.8</ele>
        <time>2019-12-08T12:41:18.000Z</time>
      </trkpt>
      <trkpt lat="43.93431" lon="5.12699">
        <ele>271.7</ele>
        <time>2019-12-08T12:41:38.000Z</time>
      </trkpt>
      <trkpt lat="43.93448" lon="5.12708">
        <ele>272.2</ele>
        <time>2019-12-08T12:41:57.000Z</time>
      </trkpt>
      <trkpt lat="43.93465" lon="5.12719">
        <ele>273.1</ele>
        <time>2019-12-08T12:42:16.000Z</time>
      </trkpt>
      <trkpt lat="43.93468" lon="5.12719">
        <ele>273.1</ele>
        <time>2019-12-08T12:42:18.000Z</time>
      </trkpt>
      <trkpt lat="43.93476" lon="5.12727">
        <ele>273.6</ele>
        <time>2019-12-08T12:42:29.000Z</time>
      </trkpt>
      <trkpt lat="43.93484" lon="5.1275">
        <ele>274.1</ele>
        <time>2019-12-08T12:42:49.000Z</time>
      </trkpt>
      <trkpt lat="43.93489" lon="5.12768">
        <ele>274.6</ele>
        <time>2019-12-08T12:43:5.000Z</time>
      </trkpt>
      <trkpt lat="43.93495" lon="5.12791">
        <ele>276</ele>
        <time>2019-12-08T12:43:24.000Z</time>
      </trkpt>
      <trkpt lat="43.93505" lon="5.12817">
        <ele>277</ele>
        <time>2019-12-08T12:43:45.000Z</time>
      </trkpt>
      <trkpt lat="43.93516" lon="5.12839">
        <ele>278.4</ele>
        <time>2019-12-08T12:44:5.000Z</time>
      </trkpt>
      <trkpt lat="43.93521" lon="5.12854">
        <ele>278.9</ele>
        <time>2019-12-08T12:44:20.000Z</time>
      </trkpt>
      <trkpt lat="43.93535" lon="5.1287">
        <ele>280.8</ele>
        <time>2019-12-08T12:44:37.000Z</time>
      </trkpt>
      <trkpt lat="43.93552" lon="5.12874">
        <ele>282.3</ele>
        <time>2019-12-08T12:44:50.000Z</time>
      </trkpt>
      <trkpt lat="43.9357" lon="5.12874">
        <ele>283.3</ele>
        <time>2019-12-08T12:45:8.000Z</time>
      </trkpt>
      <trkpt lat="43.93588" lon="5.12876">
        <ele>284.2</ele>
        <time>2019-12-08T12:45:25.000Z</time>
      </trkpt>
      <trkpt lat="43.93611" lon="5.12877">
        <ele>284.7</ele>
        <time>2019-12-08T12:45:44.000Z</time>
      </trkpt>
      <trkpt lat="43.9363" lon="5.12881">
        <ele>286.1</ele>
        <time>2019-12-08T12:46:3.000Z</time>
      </trkpt>
      <trkpt lat="43.93643" lon="5.12887">
        <ele>288</ele>
        <time>2019-12-08T12:46:23.000Z</time>
      </trkpt>
      <trkpt lat="43.93657" lon="5.12893">
        <ele>289.5</ele>
        <time>2019-12-08T12:46:41.000Z</time>
      </trkpt>
      <trkpt lat="43.9367" lon="5.12899">
        <ele>290.9</ele>
        <time>2019-12-08T12:46:56.000Z</time>
      </trkpt>
      <trkpt lat="43.93674" lon="5.12902">
        <ele>291.4</ele>
        <time>2019-12-08T12:47:9.000Z</time>
      </trkpt>
      <trkpt lat="43.93686" lon="5.12901">
        <ele>293.8</ele>
        <time>2019-12-08T12:47:25.000Z</time>
      </trkpt>
      <trkpt lat="43.93697" lon="5.12902">
        <ele>295.7</ele>
        <time>2019-12-08T12:47:41.000Z</time>
      </trkpt>
      <trkpt lat="43.93707" lon="5.12901">
        <ele>296.2</ele>
        <time>2019-12-08T12:48:0.000Z</time>
      </trkpt>
      <trkpt lat="43.93704" lon="5.12904">
        <ele>296.2</ele>
        <time>2019-12-08T12:48:26.000Z</time>
      </trkpt>
      <trkpt lat="43.937" lon="5.12888">
        <ele>296.7</ele>
        <time>2019-12-08T12:48:43.000Z</time>
      </trkpt>
      <trkpt lat="43.93683" lon="5.12865">
        <ele>296.7</ele>
        <time>2019-12-08T12:49:1.000Z</time>
      </trkpt>
      <trkpt lat="43.93675" lon="5.12857">
        <ele>296.7</ele>
        <time>2019-12-08T12:49:17.000Z</time>
      </trkpt>
      <trkpt lat="43.93663" lon="5.12851">
        <ele>297.2</ele>
        <time>2019-12-08T12:49:31.000Z</time>
      </trkpt>
      <trkpt lat="43.9365" lon="5.12842">
        <ele>296.7</ele>
        <time>2019-12-08T12:49:48.000Z</time>
      </trkpt>
      <trkpt lat="43.93634" lon="5.12831">
        <ele>296.7</ele>
        <time>2019-12-08T12:50:7.000Z</time>
      </trkpt>
      <trkpt lat="43.9362" lon="5.12824">
        <ele>296.7</ele>
        <time>2019-12-08T12:50:25.000Z</time>
      </trkpt>
      <trkpt lat="43.93606" lon="5.12818">
        <ele>296.7</ele>
        <time>2019-12-08T12:50:39.000Z</time>
      </trkpt>
      <trkpt lat="43.93586" lon="5.1281">
        <ele>296.2</ele>
        <time>2019-12-08T12:50:57.000Z</time>
      </trkpt>
      <trkpt lat="43.93569" lon="5.12802">
        <ele>295.3</ele>
        <time>2019-12-08T12:51:13.000Z</time>
      </trkpt>
      <trkpt lat="43.93552" lon="5.12786">
        <ele>293.8</ele>
        <time>2019-12-08T12:51:33.000Z</time>
      </trkpt>
      <trkpt lat="43.9355" lon="5.12784">
        <ele>294.3</ele>
        <time>2019-12-08T12:51:35.000Z</time>
      </trkpt>
      <trkpt lat="43.93549" lon="5.12778">
        <ele>294.3</ele>
        <time>2019-12-08T12:51:39.000Z</time>
      </trkpt>
      <trkpt lat="43.93547" lon="5.12772">
        <ele>293.8</ele>
        <time>2019-12-08T12:51:43.000Z</time>
      </trkpt>
      <trkpt lat="43.93539" lon="5.12745">
        <ele>293.8</ele>
        <time>2019-12-08T12:52:2.000Z</time>
      </trkpt>
      <trkpt lat="43.93533" lon="5.12718">
        <ele>294.3</ele>
        <time>2019-12-08T12:52:20.000Z</time>
      </trkpt>
      <trkpt lat="43.93537" lon="5.12706">
        <ele>295.3</ele>
        <time>2019-12-08T12:52:29.000Z</time>
      </trkpt>
      <trkpt lat="43.93543" lon="5.12701">
        <ele>295.7</ele>
        <time>2019-12-08T12:52:36.000Z</time>
      </trkpt>
      <trkpt lat="43.93558" lon="5.12697">
        <ele>297.2</ele>
        <time>2019-12-08T12:52:50.000Z</time>
      </trkpt>
      <trkpt lat="43.93572" lon="5.12697">
        <ele>298.6</ele>
        <time>2019-12-08T12:53:5.000Z</time>
      </trkpt>
      <trkpt lat="43.93583" lon="5.12701">
        <ele>299.6</ele>
        <time>2019-12-08T12:53:17.000Z</time>
      </trkpt>
      <trkpt lat="43.93588" lon="5.12703">
        <ele>300.1</ele>
        <time>2019-12-08T12:53:22.000Z</time>
      </trkpt>
      <trkpt lat="43.9359" lon="5.12705">
        <ele>300.5</ele>
        <time>2019-12-08T12:53:24.000Z</time>
      </trkpt>
      <trkpt lat="43.93603" lon="5.12716">
        <ele>301.5</ele>
        <time>2019-12-08T12:53:37.000Z</time>
      </trkpt>
      <trkpt lat="43.93604" lon="5.12716">
        <ele>301.5</ele>
        <time>2019-12-08T12:53:39.000Z</time>
      </trkpt>
      <trkpt lat="43.93613" lon="5.12723">
        <ele>302.5</ele>
        <time>2019-12-08T12:53:50.000Z</time>
      </trkpt>
      <trkpt lat="43.93625" lon="5.12729">
        <ele>303.4</ele>
        <time>2019-12-08T12:54:2.000Z</time>
      </trkpt>
      <trkpt lat="43.93629" lon="5.12731">
        <ele>303.4</ele>
        <time>2019-12-08T12:54:6.000Z</time>
      </trkpt>
      <trkpt lat="43.93642" lon="5.12736">
        <ele>304.4</ele>
        <time>2019-12-08T12:54:19.000Z</time>
      </trkpt>
      <trkpt lat="43.93648" lon="5.12735">
        <ele>305.4</ele>
        <time>2019-12-08T12:54:25.000Z</time>
      </trkpt>
      <trkpt lat="43.9366" lon="5.12735">
        <ele>305.8</ele>
        <time>2019-12-08T12:54:35.000Z</time>
      </trkpt>
      <trkpt lat="43.93672" lon="5.1273">
        <ele>306.3</ele>
        <time>2019-12-08T12:54:47.000Z</time>
      </trkpt>
      <trkpt lat="43.93685" lon="5.12726">
        <ele>307.8</ele>
        <time>2019-12-08T12:55:0.000Z</time>
      </trkpt>
      <trkpt lat="43.93687" lon="5.12724">
        <ele>308.7</ele>
        <time>2019-12-08T12:55:3.000Z</time>
      </trkpt>
      <trkpt lat="43.93697" lon="5.12719">
        <ele>308.7</ele>
        <time>2019-12-08T12:55:14.000Z</time>
      </trkpt>
      <trkpt lat="43.93712" lon="5.12714">
        <ele>310.2</ele>
        <time>2019-12-08T12:55:29.000Z</time>
      </trkpt>
      <trkpt lat="43.93722" lon="5.12713">
        <ele>311.1</ele>
        <time>2019-12-08T12:55:41.000Z</time>
      </trkpt>
      <trkpt lat="43.93725" lon="5.12711">
        <ele>311.6</ele>
        <time>2019-12-08T12:55:44.000Z</time>
      </trkpt>
      <trkpt lat="43.93727" lon="5.12709">
        <ele>312.1</ele>
        <time>2019-12-08T12:55:47.000Z</time>
      </trkpt>
      <trkpt lat="43.93738" lon="5.12709">
        <ele>313</ele>
        <time>2019-12-08T12:55:56.000Z</time>
      </trkpt>
      <trkpt lat="43.9374" lon="5.1271">
        <ele>313</ele>
        <time>2019-12-08T12:55:59.000Z</time>
      </trkpt>
      <trkpt lat="43.93752" lon="5.12709">
        <ele>314</ele>
        <time>2019-12-08T12:56:11.000Z</time>
      </trkpt>
      <trkpt lat="43.93757" lon="5.12709">
        <ele>314.5</ele>
        <time>2019-12-08T12:56:16.000Z</time>
      </trkpt>
      <trkpt lat="43.93761" lon="5.12708">
        <ele>315</ele>
        <time>2019-12-08T12:56:21.000Z</time>
      </trkpt>
      <trkpt lat="43.93764" lon="5.12708">
        <ele>315</ele>
        <time>2019-12-08T12:56:25.000Z</time>
      </trkpt>
      <trkpt lat="43.93771" lon="5.12704">
        <ele>315.5</ele>
        <time>2019-12-08T12:56:32.000Z</time>
      </trkpt>
      <trkpt lat="43.93774" lon="5.12703">
        <ele>315.5</ele>
        <time>2019-12-08T12:56:34.000Z</time>
      </trkpt>
      <trkpt lat="43.93775" lon="5.12702">
        <ele>315.9</ele>
        <time>2019-12-08T12:56:36.000Z</time>
      </trkpt>
      <trkpt lat="43.9378" lon="5.12699">
        <ele>315.9</ele>
        <time>2019-12-08T12:56:41.000Z</time>
      </trkpt>
      <trkpt lat="43.93786" lon="5.12693">
        <ele>315.9</ele>
        <time>2019-12-08T12:56:48.000Z</time>
      </trkpt>
      <trkpt lat="43.93795" lon="5.12685">
        <ele>315.9</ele>
        <time>2019-12-08T12:56:59.000Z</time>
      </trkpt>
      <trkpt lat="43.93797" lon="5.12683">
        <ele>315.9</ele>
        <time>2019-12-08T12:57:2.000Z</time>
      </trkpt>
      <trkpt lat="43.93806" lon="5.12675">
        <ele>315.9</ele>
        <time>2019-12-08T12:57:10.000Z</time>
      </trkpt>
      <trkpt lat="43.93811" lon="5.12665">
        <ele>316.4</ele>
        <time>2019-12-08T12:57:16.000Z</time>
      </trkpt>
      <trkpt lat="43.9381" lon="5.12659">
        <ele>316.4</ele>
        <time>2019-12-08T12:57:19.000Z</time>
      </trkpt>
      <trkpt lat="43.93805" lon="5.1265">
        <ele>316.4</ele>
        <time>2019-12-08T12:57:30.000Z</time>
      </trkpt>
      <trkpt lat="43.93785" lon="5.12652">
        <ele>315.9</ele>
        <time>2019-12-08T12:57:43.000Z</time>
      </trkpt>
      <trkpt lat="43.93773" lon="5.12651">
        <ele>315.9</ele>
        <time>2019-12-08T12:57:53.000Z</time>
      </trkpt>
      <trkpt lat="43.93769" lon="5.12652">
        <ele>315.9</ele>
        <time>2019-12-08T12:57:57.000Z</time>
      </trkpt>
      <trkpt lat="43.93759" lon="5.12646">
        <ele>315.9</ele>
        <time>2019-12-08T12:58:6.000Z</time>
      </trkpt>
      <trkpt lat="43.93751" lon="5.12638">
        <ele>315.9</ele>
        <time>2019-12-08T12:58:15.000Z</time>
      </trkpt>
      <trkpt lat="43.93737" lon="5.12625">
        <ele>314.5</ele>
        <time>2019-12-08T12:58:29.000Z</time>
      </trkpt>
      <trkpt lat="43.93719" lon="5.12623">
        <ele>314.5</ele>
        <time>2019-12-08T12:58:44.000Z</time>
      </trkpt>
      <trkpt lat="43.93707" lon="5.12623">
        <ele>315.5</ele>
        <time>2019-12-08T12:58:56.000Z</time>
      </trkpt>
      <trkpt lat="43.93688" lon="5.12622">
        <ele>315.5</ele>
        <time>2019-12-08T12:59:13.000Z</time>
      </trkpt>
      <trkpt lat="43.93673" lon="5.1262">
        <ele>315.5</ele>
        <time>2019-12-08T12:59:27.000Z</time>
      </trkpt>
      <trkpt lat="43.93301" lon="5.12265">
        <ele>316.9</ele>
        <time>2019-12-08T13:13:5.000Z</time>
      </trkpt>
      <trkpt lat="43.93291" lon="5.12264">
        <ele>315.9</ele>
        <time>2019-12-08T13:13:16.000Z</time>
      </trkpt>
      <trkpt lat="43.9329" lon="5.12264">
        <ele>315.5</ele>
        <time>2019-12-08T13:13:17.000Z</time>
      </trkpt>
      <trkpt lat="43.9328" lon="5.12268">
        <ele>312.6</ele>
        <time>2019-12-08T13:13:28.000Z</time>
      </trkpt>
      <trkpt lat="43.93268" lon="5.1227">
        <ele>309.2</ele>
        <time>2019-12-08T13:13:39.000Z</time>
      </trkpt>
      <trkpt lat="43.93261" lon="5.1227">
        <ele>308.2</ele>
        <time>2019-12-08T13:13:44.000Z</time>
      </trkpt>
      <trkpt lat="43.93247" lon="5.12269">
        <ele>305.8</ele>
        <time>2019-12-08T13:14:0.000Z</time>
      </trkpt>
      <trkpt lat="43.93232" lon="5.1227">
        <ele>303.9</ele>
        <time>2019-12-08T13:14:12.000Z</time>
      </trkpt>
      <trkpt lat="43.93208" lon="5.12267">
        <ele>302</ele>
        <time>2019-12-08T13:14:30.000Z</time>
      </trkpt>
      <trkpt lat="43.93189" lon="5.12261">
        <ele>300.1</ele>
        <time>2019-12-08T13:14:46.000Z</time>
      </trkpt>
      <trkpt lat="43.9318" lon="5.12262">
        <ele>298.6</ele>
        <time>2019-12-08T13:14:55.000Z</time>
      </trkpt>
      <trkpt lat="43.93177" lon="5.12263">
        <ele>298.1</ele>
        <time>2019-12-08T13:14:57.000Z</time>
      </trkpt>
      <trkpt lat="43.93163" lon="5.12267">
        <ele>297.2</ele>
        <time>2019-12-08T13:15:7.000Z</time>
      </trkpt>
      <trkpt lat="43.93155" lon="5.12265">
        <ele>296.7</ele>
        <time>2019-12-08T13:15:12.000Z</time>
      </trkpt>
      <trkpt lat="43.93151" lon="5.12269">
        <ele>295.7</ele>
        <time>2019-12-08T13:15:19.000Z</time>
      </trkpt>
      <trkpt lat="43.93139" lon="5.12265">
        <ele>295.3</ele>
        <time>2019-12-08T13:15:29.000Z</time>
      </trkpt>
      <trkpt lat="43.93125" lon="5.12269">
        <ele>293.8</ele>
        <time>2019-12-08T13:15:42.000Z</time>
      </trkpt>
      <trkpt lat="43.93114" lon="5.12266">
        <ele>292.4</ele>
        <time>2019-12-08T13:15:56.000Z</time>
      </trkpt>
      <trkpt lat="43.93101" lon="5.12263">
        <ele>290.9</ele>
        <time>2019-12-08T13:16:7.000Z</time>
      </trkpt>
      <trkpt lat="43.931" lon="5.12262">
        <ele>290.9</ele>
        <time>2019-12-08T13:16:8.000Z</time>
      </trkpt>
      <trkpt lat="43.93081" lon="5.12251">
        <ele>289.5</ele>
        <time>2019-12-08T13:16:22.000Z</time>
      </trkpt>
      <trkpt lat="43.93069" lon="5.12251">
        <ele>287.6</ele>
        <time>2019-12-08T13:16:34.000Z</time>
      </trkpt>
      <trkpt lat="43.93065" lon="5.12253">
        <ele>287.1</ele>
        <time>2019-12-08T13:16:38.000Z</time>
      </trkpt>
      <trkpt lat="43.93048" lon="5.1225">
        <ele>285.2</ele>
        <time>2019-12-08T13:16:52.000Z</time>
      </trkpt>
      <trkpt lat="43.93034" lon="5.12239">
        <ele>282.3</ele>
        <time>2019-12-08T13:17:6.000Z</time>
      </trkpt>
      <trkpt lat="43.93022" lon="5.12231">
        <ele>280.4</ele>
        <time>2019-12-08T13:17:19.000Z</time>
      </trkpt>
      <trkpt lat="43.93007" lon="5.12225">
        <ele>278.9</ele>
        <time>2019-12-08T13:17:31.000Z</time>
      </trkpt>
      <trkpt lat="43.93004" lon="5.12222">
        <ele>277.5</ele>
        <time>2019-12-08T13:17:34.000Z</time>
      </trkpt>
      <trkpt lat="43.92984" lon="5.12211">
        <ele>276</ele>
        <time>2019-12-08T13:17:49.000Z</time>
      </trkpt>
      <trkpt lat="43.92978" lon="5.12206">
        <ele>275.6</ele>
        <time>2019-12-08T13:17:55.000Z</time>
      </trkpt>
      <trkpt lat="43.9297" lon="5.122">
        <ele>274.1</ele>
        <time>2019-12-08T13:18:5.000Z</time>
      </trkpt>
      <trkpt lat="43.92957" lon="5.12193">
        <ele>272.2</ele>
        <time>2019-12-08T13:18:18.000Z</time>
      </trkpt>
      <trkpt lat="43.92953" lon="5.12187">
        <ele>271.7</ele>
        <time>2019-12-08T13:18:24.000Z</time>
      </trkpt>
      <trkpt lat="43.92951" lon="5.12186">
        <ele>270.8</ele>
        <time>2019-12-08T13:18:26.000Z</time>
      </trkpt>
      <trkpt lat="43.92939" lon="5.1218">
        <ele>268.8</ele>
        <time>2019-12-08T13:18:38.000Z</time>
      </trkpt>
      <trkpt lat="43.9293" lon="5.12174">
        <ele>266.9</ele>
        <time>2019-12-08T13:18:48.000Z</time>
      </trkpt>
      <trkpt lat="43.92906" lon="5.12176">
        <ele>264.5</ele>
        <time>2019-12-08T13:19:2.000Z</time>
      </trkpt>
      <trkpt lat="43.92898" lon="5.12178">
        <ele>264</ele>
        <time>2019-12-08T13:19:7.000Z</time>
      </trkpt>
      <trkpt lat="43.9289" lon="5.12177">
        <ele>262.1</ele>
        <time>2019-12-08T13:19:17.000Z</time>
      </trkpt>
      <trkpt lat="43.9289" lon="5.12176">
        <ele>261.6</ele>
        <time>2019-12-08T13:19:18.000Z</time>
      </trkpt>
      <trkpt lat="43.92885" lon="5.12173">
        <ele>261.6</ele>
        <time>2019-12-08T13:19:23.000Z</time>
      </trkpt>
      <trkpt lat="43.92862" lon="5.12161">
        <ele>258.3</ele>
        <time>2019-12-08T13:19:40.000Z</time>
      </trkpt>
      <trkpt lat="43.92852" lon="5.12161">
        <ele>256.8</ele>
        <time>2019-12-08T13:19:51.000Z</time>
      </trkpt>
      <trkpt lat="43.92839" lon="5.12158">
        <ele>254.4</ele>
        <time>2019-12-08T13:20:3.000Z</time>
      </trkpt>
      <trkpt lat="43.92825" lon="5.12149">
        <ele>252.5</ele>
        <time>2019-12-08T13:20:16.000Z</time>
      </trkpt>
      <trkpt lat="43.92822" lon="5.12147">
        <ele>252</ele>
        <time>2019-12-08T13:20:27.000Z</time>
      </trkpt>
      <trkpt lat="43.92817" lon="5.12144">
        <ele>252</ele>
        <time>2019-12-08T13:20:40.000Z</time>
      </trkpt>
      <trkpt lat="43.92815" lon="5.12142">
        <ele>251.5</ele>
        <time>2019-12-08T13:20:45.000Z</time>
      </trkpt>
      <trkpt lat="43.92811" lon="5.12141">
        <ele>251</ele>
        <time>2019-12-08T13:20:50.000Z</time>
      </trkpt>
      <trkpt lat="43.92798" lon="5.12135">
        <ele>249.1</ele>
        <time>2019-12-08T13:21:2.000Z</time>
      </trkpt>
      <trkpt lat="43.92789" lon="5.12133">
        <ele>247.7</ele>
        <time>2019-12-08T13:21:11.000Z</time>
      </trkpt>
      <trkpt lat="43.92784" lon="5.12131">
        <ele>247.2</ele>
        <time>2019-12-08T13:21:16.000Z</time>
      </trkpt>
      <trkpt lat="43.92767" lon="5.12122">
        <ele>244.8</ele>
        <time>2019-12-08T13:21:34.000Z</time>
      </trkpt>
      <trkpt lat="43.92753" lon="5.12112">
        <ele>242.4</ele>
        <time>2019-12-08T13:21:50.000Z</time>
      </trkpt>
      <trkpt lat="43.92747" lon="5.12108">
        <ele>241.9</ele>
        <time>2019-12-08T13:21:56.000Z</time>
      </trkpt>
      <trkpt lat="43.92736" lon="5.12119">
        <ele>241.4</ele>
        <time>2019-12-08T13:22:11.000Z</time>
      </trkpt>
      <trkpt lat="43.92722" lon="5.12112">
        <ele>239.5</ele>
        <time>2019-12-08T13:22:25.000Z</time>
      </trkpt>
      <trkpt lat="43.92721" lon="5.12111">
        <ele>240</ele>
        <time>2019-12-08T13:22:26.000Z</time>
      </trkpt>
      <trkpt lat="43.92717" lon="5.1211">
        <ele>239.5</ele>
        <time>2019-12-08T13:22:30.000Z</time>
      </trkpt>
      <trkpt lat="43.92714" lon="5.12107">
        <ele>239.5</ele>
        <time>2019-12-08T13:22:35.000Z</time>
      </trkpt>
      <trkpt lat="43.92702" lon="5.12094">
        <ele>237.1</ele>
        <time>2019-12-08T13:22:50.000Z</time>
      </trkpt>
      <trkpt lat="43.92686" lon="5.12078">
        <ele>235.2</ele>
        <time>2019-12-08T13:23:6.000Z</time>
      </trkpt>
      <trkpt lat="43.9267" lon="5.1206">
        <ele>233.3</ele>
        <time>2019-12-08T13:23:23.000Z</time>
      </trkpt>
      <trkpt lat="43.92653" lon="5.12042">
        <ele>231.8</ele>
        <time>2019-12-08T13:23:42.000Z</time>
      </trkpt>
      <trkpt lat="43.92635" lon="5.1202">
        <ele>228.4</ele>
        <time>2019-12-08T13:24:0.000Z</time>
      </trkpt>
      <trkpt lat="43.92632" lon="5.12017">
        <ele>228</ele>
        <time>2019-12-08T13:24:5.000Z</time>
      </trkpt>
      <trkpt lat="43.92615" lon="5.11999">
        <ele>226.1</ele>
        <time>2019-12-08T13:24:22.000Z</time>
      </trkpt>
      <trkpt lat="43.92605" lon="5.1198">
        <ele>223.6</ele>
        <time>2019-12-08T13:24:36.000Z</time>
      </trkpt>
      <trkpt lat="43.92594" lon="5.11963">
        <ele>221.7</ele>
        <time>2019-12-08T13:24:50.000Z</time>
      </trkpt>
      <trkpt lat="43.92588" lon="5.11952">
        <ele>220.3</ele>
        <time>2019-12-08T13:24:58.000Z</time>
      </trkpt>
      <trkpt lat="43.92577" lon="5.11932">
        <ele>217.4</ele>
        <time>2019-12-08T13:25:14.000Z</time>
      </trkpt>
      <trkpt lat="43.92575" lon="5.11918">
        <ele>215.9</ele>
        <time>2019-12-08T13:25:23.000Z</time>
      </trkpt>
      <trkpt lat="43.92558" lon="5.11901">
        <ele>213.1</ele>
        <time>2019-12-08T13:25:41.000Z</time>
      </trkpt>
      <trkpt lat="43.92548" lon="5.11883">
        <ele>211.1</ele>
        <time>2019-12-08T13:25:57.000Z</time>
      </trkpt>
      <trkpt lat="43.92536" lon="5.11866">
        <ele>208.3</ele>
        <time>2019-12-08T13:26:12.000Z</time>
      </trkpt>
      <trkpt lat="43.92535" lon="5.11859">
        <ele>207.3</ele>
        <time>2019-12-08T13:26:17.000Z</time>
      </trkpt>
      <trkpt lat="43.92536" lon="5.11857">
        <ele>206.8</ele>
        <time>2019-12-08T13:26:19.000Z</time>
      </trkpt>
      <trkpt lat="43.92536" lon="5.11852">
        <ele>206.3</ele>
        <time>2019-12-08T13:26:24.000Z</time>
      </trkpt>
      <trkpt lat="43.9253" lon="5.1184">
        <ele>204.9</ele>
        <time>2019-12-08T13:26:35.000Z</time>
      </trkpt>
      <trkpt lat="43.92511" lon="5.11837">
        <ele>203.9</ele>
        <time>2019-12-08T13:26:49.000Z</time>
      </trkpt>
      <trkpt lat="43.92489" lon="5.11839">
        <ele>203.9</ele>
        <time>2019-12-08T13:27:7.000Z</time>
      </trkpt>
      <trkpt lat="43.92469" lon="5.11832">
        <ele>203.5</ele>
        <time>2019-12-08T13:27:24.000Z</time>
      </trkpt>
      <trkpt lat="43.9245" lon="5.1182">
        <ele>201.5</ele>
        <time>2019-12-08T13:27:41.000Z</time>
      </trkpt>
      <trkpt lat="43.92432" lon="5.1182">
        <ele>200.1</ele>
        <time>2019-12-08T13:27:57.000Z</time>
      </trkpt>
      <trkpt lat="43.92418" lon="5.11821">
        <ele>198.6</ele>
        <time>2019-12-08T13:28:9.000Z</time>
      </trkpt>
      <trkpt lat="43.92412" lon="5.11822">
        <ele>198.2</ele>
        <time>2019-12-08T13:28:14.000Z</time>
      </trkpt>
      <trkpt lat="43.92397" lon="5.11817">
        <ele>197.2</ele>
        <time>2019-12-08T13:28:26.000Z</time>
      </trkpt>
      <trkpt lat="43.92395" lon="5.11818">
        <ele>197.2</ele>
        <time>2019-12-08T13:28:28.000Z</time>
      </trkpt>
      <trkpt lat="43.92377" lon="5.11815">
        <ele>195.8</ele>
        <time>2019-12-08T13:28:41.000Z</time>
      </trkpt>
      <trkpt lat="43.92368" lon="5.11811">
        <ele>195.3</ele>
        <time>2019-12-08T13:28:54.000Z</time>
      </trkpt>
      <trkpt lat="43.92365" lon="5.11811">
        <ele>195.3</ele>
        <time>2019-12-08T13:28:56.000Z</time>
      </trkpt>
      <trkpt lat="43.92349" lon="5.11804">
        <ele>193.8</ele>
        <time>2019-12-08T13:29:9.000Z</time>
      </trkpt>
      <trkpt lat="43.9234" lon="5.11799">
        <ele>192.9</ele>
        <time>2019-12-08T13:29:19.000Z</time>
      </trkpt>
      <trkpt lat="43.92324" lon="5.11792">
        <ele>191.9</ele>
        <time>2019-12-08T13:29:34.000Z</time>
      </trkpt>
      <trkpt lat="43.92318" lon="5.11789">
        <ele>191</ele>
        <time>2019-12-08T13:29:47.000Z</time>
      </trkpt>
      <trkpt lat="43.92313" lon="5.11789">
        <ele>190.5</ele>
        <time>2019-12-08T13:30:2.000Z</time>
      </trkpt>
      <trkpt lat="43.92308" lon="5.11786">
        <ele>190</ele>
        <time>2019-12-08T13:30:16.000Z</time>
      </trkpt>
      <trkpt lat="43.92297" lon="5.11782">
        <ele>188.6</ele>
        <time>2019-12-08T13:30:31.000Z</time>
      </trkpt>
      <trkpt lat="43.92285" lon="5.11779">
        <ele>188.1</ele>
        <time>2019-12-08T13:30:47.000Z</time>
      </trkpt>
      <trkpt lat="43.92279" lon="5.11778">
        <ele>187.6</ele>
        <time>2019-12-08T13:31:0.000Z</time>
      </trkpt>
      <trkpt lat="43.92272" lon="5.11774">
        <ele>186.1</ele>
        <time>2019-12-08T13:31:15.000Z</time>
      </trkpt>
      <trkpt lat="43.92265" lon="5.11766">
        <ele>184.7</ele>
        <time>2019-12-08T13:31:26.000Z</time>
      </trkpt>
      <trkpt lat="43.92254" lon="5.11753">
        <ele>183.3</ele>
        <time>2019-12-08T13:31:41.000Z</time>
      </trkpt>
      <trkpt lat="43.92239" lon="5.11745">
        <ele>180.9</ele>
        <time>2019-12-08T13:31:56.000Z</time>
      </trkpt>
      <trkpt lat="43.92225" lon="5.11735">
        <ele>178.9</ele>
        <time>2019-12-08T13:32:13.000Z</time>
      </trkpt>
      <trkpt lat="43.92215" lon="5.11727">
        <ele>177.5</ele>
        <time>2019-12-08T13:32:29.000Z</time>
      </trkpt>
      <trkpt lat="43.92208" lon="5.11723">
        <ele>177</ele>
        <time>2019-12-08T13:32:50.000Z</time>
      </trkpt>
      <trkpt lat="43.92213" lon="5.11732">
        <ele>177.5</ele>
        <time>2019-12-08T13:33:21.000Z</time>
      </trkpt>
      <trkpt lat="43.92205" lon="5.11733">
        <ele>176.5</ele>
        <time>2019-12-08T13:33:32.000Z</time>
      </trkpt>
      <trkpt lat="43.92186" lon="5.11721">
        <ele>175.1</ele>
        <time>2019-12-08T13:33:49.000Z</time>
      </trkpt>
      <trkpt lat="43.92168" lon="5.11716">
        <ele>173.7</ele>
        <time>2019-12-08T13:34:7.000Z</time>
      </trkpt>
      <trkpt lat="43.92168" lon="5.11717">
        <ele>173.7</ele>
        <time>2019-12-08T13:34:18.000Z</time>
      </trkpt>
      <trkpt lat="43.92153" lon="5.11718">
        <ele>172.2</ele>
        <time>2019-12-08T13:34:33.000Z</time>
      </trkpt>
      <trkpt lat="43.92148" lon="5.1173">
        <ele>171.7</ele>
        <time>2019-12-08T13:34:48.000Z</time>
      </trkpt>
      <trkpt lat="43.92149" lon="5.11743">
        <ele>170.8</ele>
        <time>2019-12-08T13:35:0.000Z</time>
      </trkpt>
      <trkpt lat="43.9215" lon="5.11747">
        <ele>169.8</ele>
        <time>2019-12-08T13:35:4.000Z</time>
      </trkpt>
      <trkpt lat="43.92152" lon="5.11751">
        <ele>169.8</ele>
        <time>2019-12-08T13:35:8.000Z</time>
      </trkpt>
      <trkpt lat="43.92155" lon="5.11757">
        <ele>169.3</ele>
        <time>2019-12-08T13:35:14.000Z</time>
      </trkpt>
      <trkpt lat="43.92154" lon="5.1176">
        <ele>169.3</ele>
        <time>2019-12-08T13:35:16.000Z</time>
      </trkpt>
      <trkpt lat="43.92158" lon="5.11775">
        <ele>167.4</ele>
        <time>2019-12-08T13:35:27.000Z</time>
      </trkpt>
      <trkpt lat="43.92162" lon="5.11781">
        <ele>166.4</ele>
        <time>2019-12-08T13:35:39.000Z</time>
      </trkpt>
      <trkpt lat="43.92173" lon="5.11794">
        <ele>165</ele>
        <time>2019-12-08T13:35:53.000Z</time>
      </trkpt>
      <trkpt lat="43.92184" lon="5.11805">
        <ele>161.6</ele>
        <time>2019-12-08T13:36:8.000Z</time>
      </trkpt>
      <trkpt lat="43.9219" lon="5.11819">
        <ele>159.2</ele>
        <time>2019-12-08T13:36:21.000Z</time>
      </trkpt>
      <trkpt lat="43.92197" lon="5.11839">
        <ele>156.4</ele>
        <time>2019-12-08T13:36:38.000Z</time>
      </trkpt>
      <trkpt lat="43.92199" lon="5.11859">
        <ele>154.4</ele>
        <time>2019-12-08T13:36:53.000Z</time>
      </trkpt>
      <trkpt lat="43.92201" lon="5.11866">
        <ele>153.5</ele>
        <time>2019-12-08T13:37:4.000Z</time>
      </trkpt>
      <trkpt lat="43.92203" lon="5.11878">
        <ele>153</ele>
        <time>2019-12-08T13:37:16.000Z</time>
      </trkpt>
      <trkpt lat="43.92204" lon="5.11891">
        <ele>151.5</ele>
        <time>2019-12-08T13:37:27.000Z</time>
      </trkpt>
      <trkpt lat="43.92206" lon="5.11907">
        <ele>150.1</ele>
        <time>2019-12-08T13:37:38.000Z</time>
      </trkpt>
      <trkpt lat="43.92206" lon="5.11928">
        <ele>148.2</ele>
        <time>2019-12-08T13:37:54.000Z</time>
      </trkpt>
      <trkpt lat="43.92204" lon="5.11934">
        <ele>147.2</ele>
        <time>2019-12-08T13:37:58.000Z</time>
      </trkpt>
      <trkpt lat="43.92191" lon="5.11948">
        <ele>144.8</ele>
        <time>2019-12-08T13:38:14.000Z</time>
      </trkpt>
      <trkpt lat="43.92183" lon="5.11964">
        <ele>143.4</ele>
        <time>2019-12-08T13:38:27.000Z</time>
      </trkpt>
      <trkpt lat="43.92177" lon="5.11979">
        <ele>141.9</ele>
        <time>2019-12-08T13:38:40.000Z</time>
      </trkpt>
      <trkpt lat="43.92169" lon="5.11991">
        <ele>140</ele>
        <time>2019-12-08T13:38:53.000Z</time>
      </trkpt>
      <trkpt lat="43.92162" lon="5.12003">
        <ele>138.1</ele>
        <time>2019-12-08T13:39:5.000Z</time>
      </trkpt>
      <trkpt lat="43.92162" lon="5.12005">
        <ele>138.1</ele>
        <time>2019-12-08T13:39:6.000Z</time>
      </trkpt>
      <trkpt lat="43.92157" lon="5.12023">
        <ele>137.1</ele>
        <time>2019-12-08T13:39:18.000Z</time>
      </trkpt>
      <trkpt lat="43.9216" lon="5.1203">
        <ele>136.2</ele>
        <time>2019-12-08T13:39:25.000Z</time>
      </trkpt>
      <trkpt lat="43.9216" lon="5.12047">
        <ele>136.2</ele>
        <time>2019-12-08T13:39:35.000Z</time>
      </trkpt>
      <trkpt lat="43.92161" lon="5.12054">
        <ele>136.2</ele>
        <time>2019-12-08T13:39:39.000Z</time>
      </trkpt>
      <trkpt lat="43.92167" lon="5.12078">
        <ele>135.2</ele>
        <time>2019-12-08T13:39:55.000Z</time>
      </trkpt>
      <trkpt lat="43.92168" lon="5.12083">
        <ele>135.2</ele>
        <time>2019-12-08T13:39:58.000Z</time>
      </trkpt>
      <trkpt lat="43.92173" lon="5.121">
        <ele>134.2</ele>
        <time>2019-12-08T13:40:10.000Z</time>
      </trkpt>
      <trkpt lat="43.92179" lon="5.12115">
        <ele>132.8</ele>
        <time>2019-12-08T13:40:23.000Z</time>
      </trkpt>
      <trkpt lat="43.92184" lon="5.12124">
        <ele>131.4</ele>
        <time>2019-12-08T13:40:30.000Z</time>
      </trkpt>
      <trkpt lat="43.92188" lon="5.12135">
        <ele>130.4</ele>
        <time>2019-12-08T13:40:37.000Z</time>
      </trkpt>
      <trkpt lat="43.9219" lon="5.12136">
        <ele>129.9</ele>
        <time>2019-12-08T13:40:39.000Z</time>
      </trkpt>
      <trkpt lat="43.92192" lon="5.1214">
        <ele>129.4</ele>
        <time>2019-12-08T13:40:43.000Z</time>
      </trkpt>
      <trkpt lat="43.92203" lon="5.12152">
        <ele>128</ele>
        <time>2019-12-08T13:40:58.000Z</time>
      </trkpt>
      <trkpt lat="43.92213" lon="5.12165">
        <ele>126.1</ele>
        <time>2019-12-08T13:41:13.000Z</time>
      </trkpt>
      <trkpt lat="43.9222" lon="5.12178">
        <ele>125.1</ele>
        <time>2019-12-08T13:41:22.000Z</time>
      </trkpt>
      <trkpt lat="43.92221" lon="5.12183">
        <ele>125.1</ele>
        <time>2019-12-08T13:41:25.000Z</time>
      </trkpt>
      <trkpt lat="43.92227" lon="5.12202">
        <ele>123.7</ele>
        <time>2019-12-08T13:41:37.000Z</time>
      </trkpt>
      <trkpt lat="43.92226" lon="5.12216">
        <ele>122.7</ele>
        <time>2019-12-08T13:41:49.000Z</time>
      </trkpt>
      <trkpt lat="43.92222" lon="5.12224">
        <ele>122.2</ele>
        <time>2019-12-08T13:41:55.000Z</time>
      </trkpt>
      <trkpt lat="43.92219" lon="5.12228">
        <ele>121.3</ele>
        <time>2019-12-08T13:41:59.000Z</time>
      </trkpt>
      <trkpt lat="43.92215" lon="5.12241">
        <ele>121.3</ele>
        <time>2019-12-08T13:42:8.000Z</time>
      </trkpt>
      <trkpt lat="43.92214" lon="5.12266">
        <ele>118.9</ele>
        <time>2019-12-08T13:42:24.000Z</time>
      </trkpt>
      <trkpt lat="43.92212" lon="5.12287">
        <ele>116.9</ele>
        <time>2019-12-08T13:42:40.000Z</time>
      </trkpt>
      <trkpt lat="43.9221" lon="5.12302">
        <ele>114.5</ele>
        <time>2019-12-08T13:42:54.000Z</time>
      </trkpt>
      <trkpt lat="43.92207" lon="5.12326">
        <ele>111.2</ele>
        <time>2019-12-08T13:43:8.000Z</time>
      </trkpt>
      <trkpt lat="43.92208" lon="5.12341">
        <ele>109.7</ele>
        <time>2019-12-08T13:43:18.000Z</time>
      </trkpt>
      <trkpt lat="43.92209" lon="5.12347">
        <ele>108.8</ele>
        <time>2019-12-08T13:43:22.000Z</time>
      </trkpt>
      <trkpt lat="43.92207" lon="5.12374">
        <ele>106.4</ele>
        <time>2019-12-08T13:43:40.000Z</time>
      </trkpt>
      <trkpt lat="43.92205" lon="5.12383">
        <ele>105.4</ele>
        <time>2019-12-08T13:43:53.000Z</time>
      </trkpt>
      <trkpt lat="43.92206" lon="5.12393">
        <ele>104.4</ele>
        <time>2019-12-08T13:44:12.000Z</time>
      </trkpt>
      <trkpt lat="43.92207" lon="5.12399">
        <ele>104</ele>
        <time>2019-12-08T13:44:26.000Z</time>
      </trkpt>
      <trkpt lat="43.92206" lon="5.12419">
        <ele>103</ele>
        <time>2019-12-08T13:44:40.000Z</time>
      </trkpt>
    </trkseg>
  </trk>
</gpx>